Terminal Aerodrome Forecast
Issued by NWS

Home | Current Version | Previous Version | Text Only | Print | Product List | Glossary On
Versions: 1 2 3 4 5 6 7 8 9 10 11 12 13 14 15 16 17 18
000
FTUS43 KFGF 280500
TAFDVL
TAF
KDVL 280520Z 2806/2906 15011KT P6SM OVC006
     FM281000 17010KT 4SM BR BKN012
     FM281400 17014G22KT P6SM BKN025
     FM281700 18019G29KT P6SM BKN120
     FM290300 20015G24KT P6SM -SHRA BKN050
      AMD LTD TO CLD VIS AND WIND=

USA.gov is the U.S. government's official web portal to all federal, state and local government web resources and services.